createdAt,value
2023-05-05T00:04:08.294Z,101722.91
2023-05-05T00:09:10.925Z,101714.25
2023-05-05T00:14:14.162Z,101725.66
2023-05-05T00:19:16.714Z,101729.22
2023-05-05T00:24:20.988Z,101725.53
2023-05-05T00:29:23.504Z,101724.09
2023-05-05T00:34:26.171Z,101711.09
2023-05-05T00:39:28.946Z,101704.06
2023-05-05T00:44:38.566Z,101714.78
2023-05-05T00:49:41.597Z,101717.06
2023-05-05T00:54:44.398Z,101720.00
2023-05-05T00:59:47.126Z,101706.97
2023-05-05T01:04:54.491Z,101709.28
2023-05-05T01:10:19.675Z,101715.47
2023-05-05T01:15:33.706Z,101733.41
2023-05-05T01:20:46.075Z,101729.69
2023-05-05T01:25:55.039Z,101744.13
2023-05-05T01:30:57.646Z,101743.91
2023-05-05T01:36:12.373Z,101734.84
2023-05-05T01:41:22.407Z,101749.28
2023-05-05T01:46:25.638Z,101732.97
2023-05-05T01:51:29.471Z,101742.44
2023-05-05T01:56:33.254Z,101752.38
2023-05-05T02:01:39.723Z,101766.41
2023-05-05T02:06:44.792Z,101773.63
2023-05-05T02:11:47.786Z,101773.63
2023-05-05T02:16:50.913Z,101763.50
2023-05-05T02:21:55.864Z,101767.19
2023-05-05T02:27:00.853Z,101760.41
2023-05-05T02:32:07.580Z,101777.94
2023-05-05T02:37:12.939Z,101764.75
2023-05-05T02:42:22.072Z,101762.69
2023-05-05T02:47:36.976Z,101766.38
2023-05-05T02:52:43.522Z,101766.38
2023-05-05T02:57:56.903Z,101769.28
2023-05-05T03:03:18.209Z,101764.75
2023-05-05T03:08:32.128Z,101773.38
2023-05-05T03:13:43.256Z,101777.06
2023-05-05T03:18:52.864Z,101780.69
2023-05-05T03:23:57.430Z,101782.72
2023-05-05T03:29:00.153Z,101786.72
2023-05-05T03:34:06.617Z,101781.50
2023-05-05T03:39:15.016Z,101781.78
2023-05-05T03:44:17.590Z,101766.56
2023-05-05T03:49:20.420Z,101762.16
2023-05-05T03:54:24.287Z,101761.19
2023-05-05T03:59:28.682Z,101766.66
2023-05-05T04:04:31.904Z,101799.41
2023-05-05T04:09:34.368Z,101783.78
2023-05-05T04:14:37.114Z,101801.91
2023-05-05T04:19:40.334Z,101792.75
2023-05-05T04:24:44.033Z,101799.13
2023-05-05T04:29:46.733Z,101802.81
2023-05-05T04:34:49.669Z,101791.22
2023-05-05T04:39:53.362Z,101788.91
2023-05-05T04:44:57.008Z,101787.00
2023-05-05T04:50:00.009Z,101797.09
2023-05-05T04:55:04.722Z,101795.81
2023-05-05T05:00:10.056Z,101795.31
2023-05-05T05:05:13.272Z,101801.94
2023-05-05T05:10:15.765Z,101797.53
2023-05-05T05:15:21.005Z,101796.22
2023-05-05T05:20:23.599Z,101793.72
2023-05-05T05:25:26.412Z,101799.94
2023-05-05T05:30:29.373Z,101800.28
2023-05-05T05:35:32.555Z,101781.94
2023-05-05T05:40:35.224Z,101792.28
2023-05-05T05:45:38.161Z,101787.47
2023-05-05T05:50:42.410Z,101780.16
2023-05-05T05:55:48.505Z,101784.56
2023-05-05T06:00:51.823Z,101799.25
2023-05-05T06:05:54.986Z,101796.13
2023-05-05T06:10:58.173Z,101788.19
2023-05-05T06:16:00.957Z,101791.66
2023-05-05T06:21:03.984Z,101790.72
2023-05-05T06:26:10.180Z,101781.91
2023-05-05T06:31:14.553Z,101778.56
2023-05-05T06:36:17.025Z,101773.00
2023-05-05T06:41:19.569Z,101773.66
2023-05-05T06:46:22.393Z,101771.28
2023-05-05T06:51:24.946Z,101771.38
2023-05-05T06:56:27.485Z,101769.53
2023-05-05T07:01:29.938Z,101767.13
2023-05-05T07:06:33.049Z,101763.91
2023-05-05T07:11:35.502Z,101762.94
2023-05-05T07:16:38.385Z,101768.47
2023-05-05T07:21:43.899Z,101766.94
2023-05-05T07:26:47.396Z,101766.03
2023-05-05T07:31:49.900Z,101768.63
2023-05-05T07:36:56.555Z,101767.25
2023-05-05T07:41:59.180Z,101762.06
2023-05-05T07:47:01.682Z,101769.16
2023-05-05T07:52:04.355Z,101771.06
2023-05-05T07:57:06.918Z,101758.81
2023-05-05T08:02:10.865Z,101766.94
2023-05-05T08:07:13.271Z,101761.13
2023-05-05T08:12:18.108Z,101759.75
2023-05-05T08:17:20.890Z,101759.56
2023-05-05T08:22:23.432Z,101758.00
2023-05-05T08:27:26.046Z,101749.75
2023-05-05T08:32:29.827Z,101753.75
2023-05-05T08:37:33.097Z,101750.81
2023-05-05T08:42:39.708Z,101722.94
2023-05-05T08:47:43.634Z,101742.41
2023-05-05T08:52:54.094Z,101731.22
2023-05-05T08:58:17.636Z,101729.66
2023-05-05T09:03:21.122Z,101724.03
2023-05-05T09:08:23.846Z,101731.13
2023-05-05T09:13:26.394Z,101736.66
2023-05-05T09:18:29.688Z,101734.53
2023-05-05T09:23:35.039Z,101730.03
2023-05-05T09:28:37.864Z,101715.13
2023-05-05T09:33:40.526Z,101707.78
2023-05-05T09:39:06.690Z,101697.22
2023-05-05T09:44:09.686Z,101696.03
2023-05-05T09:49:19.879Z,101696.31
2023-05-05T09:54:27.088Z,101688.47
2023-05-05T10:04:49.795Z,101661.13
2023-05-05T10:09:52.378Z,101665.78
2023-05-05T10:15:01.415Z,101656.31
2023-05-05T10:20:13.228Z,101653.72
2023-05-05T10:25:18.107Z,101645.78
2023-05-05T10:30:24.765Z,101652.88
2023-05-05T10:35:30.073Z,101650.22
2023-05-05T10:40:33.273Z,101646.06
2023-05-05T10:45:37.630Z,101638.50
2023-05-05T10:50:58.718Z,101641.09
2023-05-05T10:56:14.404Z,101632.63
2023-05-05T11:01:30.784Z,101622.56
2023-05-05T11:06:33.413Z,101608.31
2023-05-05T11:12:05.700Z,101607.50
2023-05-05T11:17:54.326Z,101605.28
2023-05-05T11:23:03.613Z,101593.56
2023-05-05T11:28:14.593Z,101592.84
2023-05-05T11:33:31.373Z,101612.50
2023-05-05T11:39:00.744Z,101589.06
2023-05-05T11:44:16.634Z,101584.22
2023-05-05T11:49:30.251Z,101576.56
2023-05-05T11:54:35.184Z,101571.00
2023-05-05T11:59:57.856Z,101556.66
2023-05-05T12:05:03.696Z,101549.31
2023-05-05T12:10:07.775Z,101545.09
2023-05-05T12:15:10.662Z,101538.69
2023-05-05T12:20:13.789Z,101533.16
2023-05-05T12:25:17.232Z,101519.91
2023-05-05T12:30:20.385Z,101537.53
2023-05-05T12:35:22.990Z,101528.50
2023-05-05T12:40:50.081Z,101523.13
2023-05-05T12:46:06.405Z,101526.53
2023-05-05T12:51:17.047Z,101504.84
2023-05-05T12:56:37.199Z,101513.47
2023-05-05T13:01:51.891Z,101496.53
2023-05-05T13:07:12.440Z,101502.53
2023-05-05T13:12:18.935Z,101502.81
2023-05-05T13:17:21.564Z,101495.06
2023-05-05T13:22:24.340Z,101490.09
2023-05-05T13:27:27.395Z,101488.75
2023-05-05T13:32:29.955Z,101485.69
2023-05-05T13:37:32.635Z,101477.72
2023-05-05T13:42:35.329Z,101478.00
2023-05-05T13:47:38.366Z,101481.06
2023-05-05T13:52:42.111Z,101487.16
2023-05-05T13:57:45.589Z,101492.59
2023-05-05T14:02:48.472Z,101491.41
2023-05-05T14:07:51.002Z,101475.25
2023-05-05T14:12:53.804Z,101482.88
2023-05-05T14:17:56.826Z,101489.34
2023-05-05T14:22:59.447Z,101479.00
2023-05-05T14:28:02.101Z,101479.69
2023-05-05T14:33:04.736Z,101490.44
2023-05-05T14:38:07.290Z,101480.22
2023-05-05T14:43:09.810Z,101482.59
2023-05-05T14:48:12.552Z,101486.66
2023-05-05T14:53:15.544Z,101474.75
2023-05-05T14:58:22.588Z,101480.38
2023-05-05T15:03:25.513Z,101474.06
2023-05-05T15:08:28.247Z,101472.72
2023-05-05T15:13:31.621Z,101482.72
2023-05-05T15:18:34.575Z,101479.56
2023-05-05T15:23:37.336Z,101485.94
2023-05-05T15:28:39.919Z,101472.13
2023-05-05T15:33:44.899Z,101479.78
2023-05-05T15:38:47.597Z,101488.19
2023-05-05T15:43:50.191Z,101479.75
2023-05-05T15:48:52.717Z,101493.19
2023-05-05T15:53:55.335Z,101489.53
2023-05-05T15:58:57.930Z,101490.22
2023-05-05T16:04:01.546Z,101492.66
2023-05-05T16:09:04.358Z,101486.47
2023-05-05T16:14:06.946Z,101474.34
2023-05-05T16:19:09.576Z,101479.06
2023-05-05T16:24:17.044Z,101486.78
2023-05-05T16:29:19.654Z,101475.00
2023-05-05T16:34:22.414Z,101472.19
2023-05-05T16:39:24.993Z,101480.81
2023-05-05T16:44:27.722Z,101473.25
2023-05-05T16:49:30.808Z,101477.09
2023-05-05T16:59:56.396Z,101466.88
2023-05-05T17:04:59.063Z,101459.91
2023-05-05T17:10:02.483Z,101454.22
2023-05-05T17:15:07.155Z,101444.19
2023-05-05T17:20:10.388Z,101452.31
2023-05-05T17:25:12.946Z,101453.91
2023-05-05T17:30:16.070Z,101448.44
2023-05-05T17:35:20.260Z,101446.25
2023-05-05T17:40:23.154Z,101444.88
2023-05-05T17:45:25.930Z,101447.81
2023-05-05T17:50:28.529Z,101451.59
2023-05-05T17:55:31.335Z,101446.44
2023-05-05T18:00:34.078Z,101444.53
2023-05-05T18:05:38.855Z,101435.56
2023-05-05T18:10:43.425Z,101434.63
2023-05-05T18:15:45.976Z,101437.28
2023-05-05T18:20:52.207Z,101427.47
2023-05-05T18:25:54.750Z,101417.31
2023-05-05T18:30:57.452Z,101418.00
2023-05-05T18:36:00.099Z,101414.78
2023-05-05T18:41:02.730Z,101420.47
2023-05-05T18:46:05.542Z,101414.97
2023-05-05T18:51:08.186Z,101404.72
2023-05-05T18:56:10.820Z,101408.72
2023-05-05T19:01:13.473Z,101414.94
2023-05-05T19:06:16.686Z,101408.69
2023-05-05T19:11:19.473Z,101400.28
2023-05-05T19:16:22.370Z,101395.47
2023-05-05T19:21:27.582Z,101367.72
2023-05-05T19:26:30.527Z,101380.94
2023-05-05T19:31:33.135Z,101378.59
2023-05-05T19:36:36.146Z,101364.69
2023-05-05T19:41:38.724Z,101374.09
2023-05-05T19:46:41.450Z,101359.88
2023-05-05T19:51:46.440Z,101351.38
2023-05-05T19:56:49.277Z,101348.94
2023-05-05T20:01:52.191Z,101352.72
2023-05-05T20:06:55.101Z,101354.16
2023-05-05T20:11:59.229Z,101358.88
2023-05-05T20:17:01.793Z,101359.25
2023-05-05T20:22:04.715Z,101357.97
2023-05-05T20:27:07.677Z,101352.69
2023-05-05T20:32:10.201Z,101345.13
2023-05-05T20:37:14.035Z,101349.31
2023-05-05T20:42:16.765Z,101337.91
2023-05-05T20:47:19.417Z,101347.00
2023-05-05T20:52:22.039Z,101340.97
2023-05-05T20:57:24.828Z,101334.31
2023-05-05T21:02:27.611Z,101335.22
2023-05-05T21:07:33.387Z,101330.19
2023-05-05T21:12:40.273Z,101319.91
2023-05-05T21:17:43.125Z,101329.25
2023-05-05T21:22:48.289Z,101331.94
2023-05-05T21:27:51.018Z,101329.09
2023-05-05T21:32:53.768Z,101315.63
2023-05-05T21:37:56.650Z,101299.81
2023-05-05T21:42:59.266Z,101320.84
2023-05-05T21:48:02.094Z,101325.84
2023-05-05T21:53:04.972Z,101314.97
2023-05-05T21:58:07.473Z,101304.53
2023-05-05T22:03:10.152Z,101302.75
2023-05-05T22:08:12.885Z,101284.06
2023-05-05T22:13:15.579Z,101297.16
2023-05-05T22:18:18.225Z,101292.34
2023-05-05T22:23:20.874Z,101298.97
2023-05-05T22:28:25.692Z,101302.94
2023-05-05T22:33:28.757Z,101290.41
2023-05-05T22:38:32.686Z,101295.31
2023-05-05T22:43:38.223Z,101289.38
2023-05-05T22:48:40.949Z,101285.47
2023-05-05T22:53:43.515Z,101282.13
2023-05-05T22:58:47.151Z,101284.56
2023-05-05T23:03:50.149Z,101278.03
2023-05-05T23:08:52.929Z,101287.25
2023-05-05T23:13:55.530Z,101282.47
2023-05-05T23:18:58.060Z,101281.09
2023-05-05T23:24:02.998Z,101276.47
2023-05-05T23:29:06.236Z,101281.09
2023-05-05T23:34:08.951Z,101286.59
2023-05-05T23:39:11.683Z,101281.63
2023-05-05T23:44:14.262Z,101286.47
2023-05-05T23:49:16.823Z,101283.28
2023-05-05T23:54:20.036Z,101283.53
2023-05-05T23:59:25.251Z,101280.09
